Beauregard Regional Airport
KDRI : now visible

Airfield :











YOU CAN JOIN US ON...

 
LOGIN :

Register | Disclaimer

   EN    FR    IT 

 









Legend :    VFR   Marginal VFR   IFR   Intensive IFR   Very Intensive IFR
Visi :
Ceiling :
>= 8 km
>= 3000ft
5 to 8 km
1000 to 3000 ft
1500m to 5 km
500 to 1000 ft
800 to 1500m
200 to 500 ft
< 800m
< 200 ft
Symbols :   Thunderstorms  Fog  Heavy snow  Heavy precipitations  Wind > 20 kt






- Airport Elevation : 202 ft


KDRI - Beauregard Regional

CURRENT METAR :
  • 041815Z AUTO 00000KT CLR 31/20 A2998 RMK AO2 T03120195 PWINO

EXPIRED METARs :
  • 041755Z AUTO 00000KT CLR 31/20 A2998 RMK AO2 T03060201 10308 20195 PWINO
  • 041735Z AUTO 00000KT CLR 31/20 A2999 RMK AO2 T03050198 PWINO
  • 041715Z AUTO 24004KT CLR 30/20 A2999 RMK AO2 T03000195 PWINO
  • 041655Z AUTO 25004KT CLR 30/19 A2999 RMK AO2 T02970192 PWINO
  • 041635Z AUTO 28005KT CLR 30/19 A2999 RMK AO2 T02950191 PWINO
  • 041615Z AUTO 29005KT 10SM CLR 29/19 A2999 RMK AO2 T02880190 PWINO
  • 041555Z AUTO 31005KT CLR 28/19 A2999 RMK AO2 T02830194 PWINO

TAF N/A
KZHU FIR / North America



MET'MAP, your aeronautical weather chart ! - Copyright ORBIFLY December 2007 - Disclaimer

ORBIFLY MET'MAP TEAM :

Programming & Development : Alexandra Zaïnal
Concept & original design : Baudouin d'Aumeries
Assistance for programming : Marc-Olivier Méhu
Technical & hardware support : Manuel Goepfert

Contact : metmap@orbifly.com




SOURCES & CREDITS :

   NOAA       Earth
Advisory